Parker City, Indiana
Current Conditions -  °F | °C
As of 6:53 PM on Monday 20 Oct 2014 (Local Time) from KMIE Reporting Station
Scattered Clouds Scattered Clouds  
Wind Chill: 16°   Ceiling: Unl
Heat Index: 16°   Visibility: 10mi
Dew Point:   Wind: 7mph
Humidity: 64%   Direction: 300°WNW
Pressure: 29.85"   Gusts: NA
Location:  40.19°N, 85.2°W
Report Text: KMIE 202253Z 30006KT 10SM SCT070 16/09 A2985 RMK AO2 SLP105 T01560089
Loading
Personal Weather Stations






























Interactive Weather Map
Tropical Storm Tracking
New forecast layout! Learn more

10-Day Weather Forecast

Advertisements
Track Severe Weather on mobile